sensor_id;sensor_type;location;lat;lon;timestamp;pressure;altitude;pressure_sealevel;temperature;humidity
32197;BME280;18697;42.770;23.400;2022-10-31T00:01:59;96088.94;;;17.41;56.59
32197;BME280;18697;42.770;23.400;2022-10-31T00:04:24;96081.25;;;17.67;56.15
32197;BME280;18697;42.770;23.400;2022-10-31T00:06:50;96078.00;;;17.80;52.90
32197;BME280;18697;42.770;23.400;2022-10-31T00:09:15;96090.94;;;18.09;54.09
32197;BME280;18697;42.770;23.400;2022-10-31T00:11:40;96093.94;;;18.54;52.50
32197;BME280;18697;42.770;23.400;2022-10-31T00:14:06;96091.25;;;18.93;52.13
32197;BME280;18697;42.770;23.400;2022-10-31T00:16:31;96089.00;;;19.14;50.07
32197;BME280;18697;42.770;23.400;2022-10-31T00:19:02;96090.28;;;19.29;51.36
32197;BME280;18697;42.770;23.400;2022-10-31T00:21:29;96080.31;;;19.56;50.94
32197;BME280;18697;42.770;23.400;2022-10-31T00:23:54;96075.94;;;19.72;49.42
32197;BME280;18697;42.770;23.400;2022-10-31T00:26:20;96077.97;;;19.83;49.24
32197;BME280;18697;42.770;23.400;2022-10-31T00:28:45;96074.88;;;20.03;49.11
32197;BME280;18697;42.770;23.400;2022-10-31T00:31:12;96080.72;;;20.16;48.76
32197;BME280;18697;42.770;23.400;2022-10-31T00:33:39;96073.25;;;20.19;48.41
32197;BME280;18697;42.770;23.400;2022-10-31T00:36:06;96072.75;;;20.20;48.00
32197;BME280;18697;42.770;23.400;2022-10-31T00:38:32;96074.75;;;20.31;48.15
32197;BME280;18697;42.770;23.400;2022-10-31T00:40:57;96074.03;;;20.14;47.79
32197;BME280;18697;42.770;23.400;2022-10-31T00:43:23;96075.84;;;20.11;47.42
32197;BME280;18697;42.770;23.400;2022-10-31T00:45:48;96071.22;;;20.14;47.22
32197;BME280;18697;42.770;23.400;2022-10-31T00:48:14;96079.16;;;20.15;47.18
32197;BME280;18697;42.770;23.400;2022-10-31T00:50:39;96077.13;;;20.16;47.05
32197;BME280;18697;42.770;23.400;2022-10-31T00:53:05;96080.28;;;19.45;43.87
32197;BME280;18697;42.770;23.400;2022-10-31T00:55:31;96076.06;;;18.57;46.85
32197;BME280;18697;42.770;23.400;2022-10-31T00:57:56;96092.13;;;17.60;47.22
32197;BME280;18697;42.770;23.400;2022-10-31T01:00:22;96085.16;;;17.18;53.56
32197;BME280;18697;42.770;23.400;2022-10-31T01:02:47;96090.25;;;17.77;53.75
32197;BME280;18697;42.770;23.400;2022-10-31T01:05:13;96076.78;;;17.92;51.46
32197;BME280;18697;42.770;23.400;2022-10-31T01:07:39;96083.78;;;17.65;48.82
32197;BME280;18697;42.770;23.400;2022-10-31T01:10:05;96089.00;;;17.21;49.81
32197;BME280;18697;42.770;23.400;2022-10-31T01:12:43;96091.41;;;16.76;55.55
32197;BME280;18697;42.770;23.400;2022-10-31T01:15:10;96096.81;;;17.37;55.20
32197;BME280;18697;42.770;23.400;2022-10-31T01:17:36;96099.53;;;17.94;52.65
32197;BME280;18697;42.770;23.400;2022-10-31T01:20:03;96096.69;;;18.37;52.19
32197;BME280;18697;42.770;23.400;2022-10-31T01:22:29;96099.88;;;18.67;51.33
32197;BME280;18697;42.770;23.400;2022-10-31T01:24:54;96102.63;;;18.50;47.22
32197;BME280;18697;42.770;23.400;2022-10-31T01:27:19;96095.94;;;17.25;47.88
32197;BME280;18697;42.770;23.400;2022-10-31T01:29:45;96102.06;;;16.52;54.27
32197;BME280;18697;42.770;23.400;2022-10-31T01:32:10;96100.31;;;15.93;51.52
32197;BME280;18697;42.770;23.400;2022-10-31T01:34:36;96099.56;;;15.43;52.88
32197;BME280;18697;42.770;23.400;2022-10-31T01:37:01;96106.19;;;14.33;55.75
32197;BME280;18697;42.770;23.400;2022-10-31T01:39:26;96100.91;;;14.11;59.65
32197;BME280;18697;42.770;23.400;2022-10-31T01:41:52;96097.66;;;14.13;58.29
32197;BME280;18697;42.770;23.400;2022-10-31T01:49:33;96098.03;;;13.07;60.93
32197;BME280;18697;42.770;23.400;2022-10-31T01:52:07;96111.41;;;12.75;62.43
32197;BME280;18697;42.770;23.400;2022-10-31T01:54:42;96100.50;;;13.05;63.73
32197;BME280;18697;42.770;23.400;2022-10-31T01:57:12;96103.59;;;13.16;62.07
32197;BME280;18697;42.770;23.400;2022-10-31T01:59:43;96106.25;;;13.01;62.68
32197;BME280;18697;42.770;23.400;2022-10-31T02:02:10;96106.88;;;12.96;63.77
32197;BME280;18697;42.770;23.400;2022-10-31T02:04:36;96100.19;;;13.03;64.11
32197;BME280;18697;42.770;23.400;2022-10-31T02:07:05;96100.19;;;13.12;63.11
32197;BME280;18697;42.770;23.400;2022-10-31T02:09:33;96111.25;;;13.39;65.54
32197;BME280;18697;42.770;23.400;2022-10-31T02:12:00;96115.06;;;13.18;63.83
32197;BME280;18697;42.770;23.400;2022-10-31T02:14:27;96119.59;;;12.88;64.46
32197;BME280;18697;42.770;23.400;2022-10-31T02:16:54;96112.63;;;12.83;66.28
32197;BME280;18697;42.770;23.400;2022-10-31T02:30:18;96134.50;;;12.39;67.35
32197;BME280;18697;42.770;23.400;2022-10-31T02:40:27;96142.34;;;12.04;69.09
32197;BME280;18697;42.770;23.400;2022-10-31T02:43:12;96145.44;;;11.88;69.28
32197;BME280;18697;42.770;23.400;2022-10-31T02:46:09;96132.63;;;12.09;72.89
32197;BME280;18697;42.770;23.400;2022-10-31T02:48:34;96135.28;;;12.31;69.33
32197;BME280;18697;42.770;23.400;2022-10-31T02:51:04;96146.22;;;11.98;67.96
32197;BME280;18697;42.770;23.400;2022-10-31T02:53:36;96139.19;;;11.75;68.77
32197;BME280;18697;42.770;23.400;2022-10-31T02:58:41;96148.22;;;11.97;69.63
32197;BME280;18697;42.770;23.400;2022-10-31T03:04:09;96160.81;;;12.38;71.57
32197;BME280;18697;42.770;23.400;2022-10-31T03:09:37;96143.19;;;15.20;61.72
32197;BME280;18697;42.770;23.400;2022-10-31T03:12:22;96140.22;;;15.88;58.70
32197;BME280;18697;42.770;23.400;2022-10-31T03:14:55;96148.69;;;16.49;57.00
32197;BME280;18697;42.770;23.400;2022-10-31T03:20:13;96139.53;;;17.78;53.18
32197;BME280;18697;42.770;23.400;2022-10-31T03:22:42;96137.59;;;17.95;51.63
32197;BME280;18697;42.770;23.400;2022-10-31T03:25:09;96140.16;;;18.36;51.43
32197;BME280;18697;42.770;23.400;2022-10-31T03:27:36;96146.91;;;18.61;50.36
32197;BME280;18697;42.770;23.400;2022-10-31T03:30:04;96145.66;;;18.62;50.28
32197;BME280;18697;42.770;23.400;2022-10-31T03:35:01;96155.50;;;19.00;49.61
32197;BME280;18697;42.770;23.400;2022-10-31T03:37:30;96153.88;;;18.77;47.94
32197;BME280;18697;42.770;23.400;2022-10-31T03:39:58;96156.88;;;18.56;50.46
32197;BME280;18697;42.770;23.400;2022-10-31T03:42:31;96160.75;;;18.64;49.76
32197;BME280;18697;42.770;23.400;2022-10-31T03:45:15;96162.13;;;18.37;49.01
32197;BME280;18697;42.770;23.400;2022-10-31T03:47:42;96158.53;;;17.05;52.35
32197;BME280;18697;42.770;23.400;2022-10-31T03:50:10;96162.13;;;17.63;52.71
32197;BME280;18697;42.770;23.400;2022-10-31T03:52:46;96154.53;;;18.06;51.60
32197;BME280;18697;42.770;23.400;2022-10-31T03:55:17;96162.88;;;17.95;50.93
32197;BME280;18697;42.770;23.400;2022-10-31T04:00:23;96170.06;;;18.39;50.31
32197;BME280;18697;42.770;23.400;2022-10-31T04:02:59;96164.06;;;18.63;50.03
32197;BME280;18697;42.770;23.400;2022-10-31T04:05:26;96168.22;;;18.79;49.52
32197;BME280;18697;42.770;23.400;2022-10-31T04:07:54;96173.16;;;18.95;49.48
32197;BME280;18697;42.770;23.400;2022-10-31T04:10:22;96180.38;;;19.18;48.50
32197;BME280;18697;42.770;23.400;2022-10-31T04:12:52;96174.75;;;19.18;48.11
32197;BME280;18697;42.770;23.400;2022-10-31T04:15:20;96181.16;;;19.19;48.19
32197;BME280;18697;42.770;23.400;2022-10-31T04:17:49;96183.72;;;19.17;47.81
32197;BME280;18697;42.770;23.400;2022-10-31T04:20:17;96179.63;;;19.18;48.10
32197;BME280;18697;42.770;23.400;2022-10-31T04:22:43;96177.81;;;19.31;47.59
32197;BME280;18697;42.770;23.400;2022-10-31T04:25:08;96174.78;;;19.41;47.65
32197;BME280;18697;42.770;23.400;2022-10-31T04:27:34;96182.44;;;19.34;48.11
32197;BME280;18697;42.770;23.400;2022-10-31T04:29:59;96178.13;;;19.50;47.75
32197;BME280;18697;42.770;23.400;2022-10-31T04:32:25;96181.94;;;19.47;47.00
32197;BME280;18697;42.770;23.400;2022-10-31T04:34:50;96184.81;;;19.64;46.88
32197;BME280;18697;42.770;23.400;2022-10-31T04:37:15;96182.78;;;19.64;47.18
32197;BME280;18697;42.770;23.400;2022-10-31T04:39:41;96176.13;;;19.90;45.82
32197;BME280;18697;42.770;23.400;2022-10-31T04:42:06;96180.47;;;19.80;46.71
32197;BME280;18697;42.770;23.400;2022-10-31T04:44:31;96186.88;;;20.02;45.91
32197;BME280;18697;42.770;23.400;2022-10-31T04:46:57;96176.31;;;20.31;45.48
32197;BME280;18697;42.770;23.400;2022-10-31T04:49:22;96184.00;;;20.47;45.63
32197;BME280;18697;42.770;23.400;2022-10-31T04:51:47;96191.69;;;20.35;46.10
32197;BME280;18697;42.770;23.400;2022-10-31T04:54:13;96188.88;;;20.19;47.75
32197;BME280;18697;42.770;23.400;2022-10-31T04:56:38;96184.25;;;20.27;46.89
32197;BME280;18697;42.770;23.400;2022-10-31T04:59:03;96190.66;;;20.55;46.84
32197;BME280;18697;42.770;23.400;2022-10-31T05:01:29;96191.16;;;20.59;46.73
32197;BME280;18697;42.770;23.400;2022-10-31T05:03:54;96199.34;;;20.63;46.70
32197;BME280;18697;42.770;23.400;2022-10-31T05:06:20;96203.72;;;20.58;46.65
32197;BME280;18697;42.770;23.400;2022-10-31T05:08:45;96203.97;;;20.60;45.88
32197;BME280;18697;42.770;23.400;2022-10-31T05:11:10;96206.78;;;20.66;46.40
32197;BME280;18697;42.770;23.400;2022-10-31T05:13:36;96213.19;;;20.66;46.46
32197;BME280;18697;42.770;23.400;2022-10-31T05:16:01;96217.59;;;20.56;46.47
32197;BME280;18697;42.770;23.400;2022-10-31T05:18:28;96216.03;;;20.61;46.44
32197;BME280;18697;42.770;23.400;2022-10-31T05:20:53;96206.00;;;20.65;46.00
32197;BME280;18697;42.770;23.400;2022-10-31T05:23:19;96221.69;;;20.55;47.00
32197;BME280;18697;42.770;23.400;2022-10-31T05:25:44;96219.63;;;20.61;47.13
32197;BME280;18697;42.770;23.400;2022-10-31T05:28:09;96221.94;;;20.57;47.22
32197;BME280;18697;42.770;23.400;2022-10-31T05:30:35;96218.38;;;20.40;46.95
32197;BME280;18697;42.770;23.400;2022-10-31T05:33:00;96218.38;;;20.29;47.67
32197;BME280;18697;42.770;23.400;2022-10-31T05:35:29;96219.13;;;20.29;47.51
32197;BME280;18697;42.770;23.400;2022-10-31T05:37:55;96227.34;;;20.27;47.36
32197;BME280;18697;42.770;23.400;2022-10-31T05:40:21;96238.38;;;20.25;47.55
32197;BME280;18697;42.770;23.400;2022-10-31T05:42:50;96224.00;;;20.18;46.90
32197;BME280;18697;42.770;23.400;2022-10-31T05:45:17;96238.38;;;20.09;47.56
32197;BME280;18697;42.770;23.400;2022-10-31T05:47:56;96230.72;;;19.98;47.76
32197;BME280;18697;42.770;23.400;2022-10-31T05:50:23;96235.56;;;20.20;45.89
32197;BME280;18697;42.770;23.400;2022-10-31T05:53:03;96244.78;;;20.43;47.00
32197;BME280;18697;42.770;23.400;2022-10-31T05:55:29;96248.06;;;20.75;44.70
32197;BME280;18697;42.770;23.400;2022-10-31T05:57:55;96239.25;;;20.95;44.56
32197;BME280;18697;42.770;23.400;2022-10-31T06:00:21;96248.66;;;21.25;44.21
32197;BME280;18697;42.770;23.400;2022-10-31T06:02:46;96245.25;;;21.44;43.31
32197;BME280;18697;42.770;23.400;2022-10-31T06:05:12;96252.81;;;21.65;42.52
32197;BME280;18697;42.770;23.400;2022-10-31T06:07:38;96249.38;;;21.78;42.14
32197;BME280;18697;42.770;23.400;2022-10-31T06:10:05;96253.09;;;21.97;41.84
32197;BME280;18697;42.770;23.400;2022-10-31T06:12:31;96250.00;;;22.07;41.76
32197;BME280;18697;42.770;23.400;2022-10-31T06:14:56;96260.31;;;21.98;41.79
32197;BME280;18697;42.770;23.400;2022-10-31T06:17:22;96261.84;;;22.00;41.57
32197;BME280;18697;42.770;23.400;2022-10-31T06:19:47;96262.34;;;22.04;40.91
32197;BME280;18697;42.770;23.400;2022-10-31T06:22:13;96270.44;;;21.83;40.71
32197;BME280;18697;42.770;23.400;2022-10-31T06:24:38;96266.47;;;21.56;41.51
32197;BME280;18697;42.770;23.400;2022-10-31T06:27:05;96273.97;;;21.53;41.84
32197;BME280;18697;42.770;23.400;2022-10-31T06:29:31;96275.69;;;21.62;42.12
32197;BME280;18697;42.770;23.400;2022-10-31T06:31:56;96281.28;;;21.26;40.55
32197;BME280;18697;42.770;23.400;2022-10-31T06:34:21;96287.53;;;19.63;43.95
32197;BME280;18697;42.770;23.400;2022-10-31T06:36:47;96285.50;;;19.69;46.28
32197;BME280;18697;42.770;23.400;2022-10-31T06:39:13;96284.72;;;19.68;44.99
32197;BME280;18697;42.770;23.400;2022-10-31T06:41:38;96287.28;;;18.96;46.41
32197;BME280;18697;42.770;23.400;2022-10-31T06:44:05;96290.88;;;19.02;47.80
32197;BME280;18697;42.770;23.400;2022-10-31T06:46:31;96290.72;;;18.74;48.42
32197;BME280;18697;42.770;23.400;2022-10-31T06:48:56;96294.84;;;17.79;52.22
32197;BME280;18697;42.770;23.400;2022-10-31T06:51:21;96289.81;;;17.88;51.40
32197;BME280;18697;42.770;23.400;2022-10-31T06:53:47;96298.97;;;17.37;53.75
32197;BME280;18697;42.770;23.400;2022-10-31T06:56:12;96292.00;;;17.32;53.54
32197;BME280;18697;42.770;23.400;2022-10-31T06:58:37;96298.63;;;16.89;54.77
32197;BME280;18697;42.770;23.400;2022-10-31T07:01:03;96302.97;;;17.30;54.88
32197;BME280;18697;42.770;23.400;2022-10-31T07:03:28;96302.72;;;17.54;54.20
32197;BME280;18697;42.770;23.400;2022-10-31T07:05:57;96300.75;;;17.81;53.14
32197;BME280;18697;42.770;23.400;2022-10-31T07:08:23;96296.63;;;17.56;53.23
32197;BME280;18697;42.770;23.400;2022-10-31T07:10:57;96296.09;;;17.31;53.70
32197;BME280;18697;42.770;23.400;2022-10-31T07:13:23;96291.81;;;17.36;54.41
32197;BME280;18697;42.770;23.400;2022-10-31T07:16:00;96283.28;;;17.71;52.74
32197;BME280;18697;42.770;23.400;2022-10-31T07:18:25;96281.13;;;18.18;51.33
32197;BME280;18697;42.770;23.400;2022-10-31T07:20:52;96286.88;;;18.34;51.60
32197;BME280;18697;42.770;23.400;2022-10-31T07:23:18;96278.06;;;18.53;50.03
32197;BME280;18697;42.770;23.400;2022-10-31T07:25:43;96279.00;;;18.81;48.38
32197;BME280;18697;42.770;23.400;2022-10-31T07:28:08;96282.41;;;18.59;48.58
32197;BME280;18697;42.770;23.400;2022-10-31T07:30:34;96278.81;;;18.96;48.81
32197;BME280;18697;42.770;23.400;2022-10-31T07:33:00;96283.28;;;19.19;47.78
32197;BME280;18697;42.770;23.400;2022-10-31T07:35:27;96272.94;;;19.59;47.26
32197;BME280;18697;42.770;23.400;2022-10-31T07:37:53;96278.06;;;19.60;46.12
32197;BME280;18697;42.770;23.400;2022-10-31T07:40:20;96276.00;;;19.61;45.96
32197;BME280;18697;42.770;23.400;2022-10-31T07:42:47;96269.38;;;20.09;47.13
32197;BME280;18697;42.770;23.400;2022-10-31T07:45:18;96273.75;;;20.65;44.69
32197;BME280;18697;42.770;23.400;2022-10-31T07:47:46;96262.44;;;20.77;45.64
32197;BME280;18697;42.770;23.400;2022-10-31T07:50:14;96269.78;;;21.08;43.21
32197;BME280;18697;42.770;23.400;2022-10-31T07:52:40;96272.78;;;21.32;42.52
32197;BME280;18697;42.770;23.400;2022-10-31T07:55:06;96267.09;;;21.38;41.96
32197;BME280;18697;42.770;23.400;2022-10-31T07:57:32;96272.78;;;21.32;43.32
32197;BME280;18697;42.770;23.400;2022-10-31T07:59:57;96271.81;;;21.65;42.99
32197;BME280;18697;42.770;23.400;2022-10-31T08:02:23;96273.91;;;21.59;41.74
32197;BME280;18697;42.770;23.400;2022-10-31T08:04:49;96266.66;;;21.69;42.28
32197;BME280;18697;42.770;23.400;2022-10-31T08:07:14;96265.13;;;21.68;41.28
32197;BME280;18697;42.770;23.400;2022-10-31T08:09:40;96269.59;;;21.93;41.03
32197;BME280;18697;42.770;23.400;2022-10-31T08:12:05;96258.50;;;22.31;42.12
32197;BME280;18697;42.770;23.400;2022-10-31T08:14:31;96271.56;;;22.40;41.20
32197;BME280;18697;42.770;23.400;2022-10-31T08:16:56;96265.09;;;22.69;41.32
32197;BME280;18697;42.770;23.400;2022-10-31T08:19:21;96268.44;;;22.98;40.30
32197;BME280;18697;42.770;23.400;2022-10-31T08:21:50;96262.38;;;23.31;39.33
32197;BME280;18697;42.770;23.400;2022-10-31T08:24:15;96258.47;;;23.53;39.43
32197;BME280;18697;42.770;23.400;2022-10-31T08:26:41;96261.31;;;23.90;38.19
32197;BME280;18697;42.770;23.400;2022-10-31T08:29:06;96252.69;;;24.15;37.96
32197;BME280;18697;42.770;23.400;2022-10-31T08:31:32;96254.84;;;24.28;37.95
32197;BME280;18697;42.770;23.400;2022-10-31T08:33:57;96255.44;;;24.20;38.53
32197;BME280;18697;42.770;23.400;2022-10-31T08:36:22;96254.97;;;24.35;38.09
32197;BME280;18697;42.770;23.400;2022-10-31T08:38:48;96254.00;;;24.14;37.55
32197;BME280;18697;42.770;23.400;2022-10-31T08:41:14;96260.13;;;24.18;37.85
32197;BME280;18697;42.770;23.400;2022-10-31T08:43:39;96255.69;;;23.72;37.64
32197;BME280;18697;42.770;23.400;2022-10-31T08:46:05;96254.75;;;23.64;38.70
32197;BME280;18697;42.770;23.400;2022-10-31T08:48:31;96254.41;;;23.86;38.45
32197;BME280;18697;42.770;23.400;2022-10-31T08:50:58;96245.50;;;23.95;38.38
32197;BME280;18697;42.770;23.400;2022-10-31T08:53:24;96255.88;;;24.24;39.05
32197;BME280;18697;42.770;23.400;2022-10-31T08:55:50;96263.75;;;24.50;37.06
32197;BME280;18697;42.770;23.400;2022-10-31T08:58:17;96255.13;;;24.24;36.72
32197;BME280;18697;42.770;23.400;2022-10-31T09:00:43;96248.16;;;23.74;38.67
32197;BME280;18697;42.770;23.400;2022-10-31T09:03:11;96258.13;;;24.13;38.28
32197;BME280;18697;42.770;23.400;2022-10-31T09:05:37;96251.94;;;23.64;38.56
32197;BME280;18697;42.770;23.400;2022-10-31T09:08:04;96260.56;;;23.52;39.60
32197;BME280;18697;42.770;23.400;2022-10-31T09:10:31;96253.09;;;24.06;38.69
32197;BME280;18697;42.770;23.400;2022-10-31T09:12:59;96252.75;;;24.28;38.71
32197;BME280;18697;42.770;23.400;2022-10-31T09:15:26;96249.09;;;24.46;38.00
32197;BME280;18697;42.770;23.400;2022-10-31T09:17:51;96239.63;;;24.70;37.43
32197;BME280;18697;42.770;23.400;2022-10-31T09:20:17;96239.31;;;25.27;36.54
32197;BME280;18697;42.770;23.400;2022-10-31T09:22:42;96239.06;;;25.38;36.43
32197;BME280;18697;42.770;23.400;2022-10-31T09:25:08;96243.44;;;25.65;36.10
32197;BME280;18697;42.770;23.400;2022-10-31T09:27:34;96251.69;;;25.90;35.79
32197;BME280;18697;42.770;23.400;2022-10-31T09:29:59;96239.75;;;25.91;35.14
32197;BME280;18697;42.770;23.400;2022-10-31T09:32:24;96244.03;;;26.05;35.58
32197;BME280;18697;42.770;23.400;2022-10-31T09:34:50;96242.47;;;25.97;35.40
32197;BME280;18697;42.770;23.400;2022-10-31T09:37:15;96237.00;;;25.99;35.14
32197;BME280;18697;42.770;23.400;2022-10-31T09:39:41;96239.81;;;26.19;35.31
32197;BME280;18697;42.770;23.400;2022-10-31T09:44:58;96238.13;;;26.58;34.82
32197;BME280;18697;42.770;23.400;2022-10-31T09:52:30;96226.56;;;26.92;34.03
32197;BME280;18697;42.770;23.400;2022-10-31T09:55:30;96219.16;;;27.17;33.93
32197;BME280;18697;42.770;23.400;2022-10-31T09:57:58;96219.88;;;27.10;33.42
32197;BME280;18697;42.770;23.400;2022-10-31T10:00:24;96217.81;;;27.19;33.55
32197;BME280;18697;42.770;23.400;2022-10-31T10:02:59;96219.09;;;27.10;33.59
32197;BME280;18697;42.770;23.400;2022-10-31T10:05:37;96215.25;;;27.00;33.20
32197;BME280;18697;42.770;23.400;2022-10-31T10:08:11;96207.88;;;27.04;33.97
32197;BME280;18697;42.770;23.400;2022-10-31T10:21:37;96192.59;;;27.30;32.83
32197;BME280;18697;42.770;23.400;2022-10-31T10:26:58;96189.91;;;27.25;32.62
32197;BME280;18697;42.770;23.400;2022-10-31T10:30:11;96182.75;;;27.39;32.40
32197;BME280;18697;42.770;23.400;2022-10-31T10:32:53;96175.75;;;27.55;32.68
32197;BME280;18697;42.770;23.400;2022-10-31T10:35:30;96180.78;;;27.70;33.15
32197;BME280;18697;42.770;23.400;2022-10-31T10:38:02;96176.84;;;27.96;32.53
32197;BME280;18697;42.770;23.400;2022-10-31T10:40:29;96170.00;;;27.99;32.33
32197;BME280;18697;42.770;23.400;2022-10-31T10:43:19;96164.69;;;28.18;32.59
32197;BME280;18697;42.770;23.400;2022-10-31T10:45:52;96168.13;;;28.24;32.22
32197;BME280;18697;42.770;23.400;2022-10-31T10:49:31;96160.50;;;28.11;32.35
32197;BME280;18697;42.770;23.400;2022-10-31T10:55:03;96142.25;;;28.22;32.06
32197;BME280;18697;42.770;23.400;2022-10-31T10:57:56;96149.47;;;28.31;31.95
32197;BME280;18697;42.770;23.400;2022-10-31T11:02:55;96144.13;;;28.27;32.22
32197;BME280;18697;42.770;23.400;2022-10-31T11:05:25;96140.31;;;28.25;32.29
32197;BME280;18697;42.770;23.400;2022-10-31T11:07:53;96139.56;;;28.24;32.24
32197;BME280;18697;42.770;23.400;2022-10-31T11:10:18;96131.75;;;28.32;32.20
32197;BME280;18697;42.770;23.400;2022-10-31T11:12:56;96131.19;;;28.41;31.59
32197;BME280;18697;42.770;23.400;2022-10-31T11:15:25;96126.81;;;28.48;31.59
32197;BME280;18697;42.770;23.400;2022-10-31T11:17:53;96121.66;;;28.54;31.64
32197;BME280;18697;42.770;23.400;2022-10-31T11:22:46;96117.47;;;28.40;31.34
32197;BME280;18697;42.770;23.400;2022-10-31T11:25:22;96117.47;;;28.32;31.72
32197;BME280;18697;42.770;23.400;2022-10-31T11:28:10;96108.31;;;28.57;31.38
32197;BME280;18697;42.770;23.400;2022-10-31T11:30:43;96098.56;;;28.67;31.72
32197;BME280;18697;42.770;23.400;2022-10-31T11:33:22;96101.88;;;28.33;30.87
32197;BME280;18697;42.770;23.400;2022-10-31T11:35:49;96101.84;;;28.49;31.16
32197;BME280;18697;42.770;23.400;2022-10-31T11:38:18;96097.09;;;28.28;31.17
32197;BME280;18697;42.770;23.400;2022-10-31T11:41:37;96084.53;;;28.46;31.01
32197;BME280;18697;42.770;23.400;2022-10-31T11:43:38;96083.53;;;28.67;31.48
32197;BME280;18697;42.770;23.400;2022-10-31T11:46:21;96080.84;;;28.76;30.90
32197;BME280;18697;42.770;23.400;2022-10-31T11:48:50;96082.09;;;28.98;31.20
32197;BME280;18697;42.770;23.400;2022-10-31T11:51:26;96080.56;;;29.05;30.29
32197;BME280;18697;42.770;23.400;2022-10-31T11:53:55;96073.38;;;28.96;30.96
32197;BME280;18697;42.770;23.400;2022-10-31T11:56:23;96078.94;;;28.79;29.73
32197;BME280;18697;42.770;23.400;2022-10-31T11:58:56;96070.94;;;28.85;30.56
32197;BME280;18697;42.770;23.400;2022-10-31T12:01:25;96071.72;;;28.70;30.55
32197;BME280;18697;42.770;23.400;2022-10-31T12:04:00;96068.81;;;28.78;30.63
32197;BME280;18697;42.770;23.400;2022-10-31T12:06:36;96063.28;;;28.88;30.63
32197;BME280;18697;42.770;23.400;2022-10-31T12:15:23;96058.91;;;29.27;30.19
32197;BME280;18697;42.770;23.400;2022-10-31T12:26:36;96043.88;;;28.71;30.99
32197;BME280;18697;42.770;23.400;2022-10-31T12:32:20;96044.50;;;29.09;29.94
32197;BME280;18697;42.770;23.400;2022-10-31T12:43:48;96044.88;;;28.58;29.96
32197;BME280;18697;42.770;23.400;2022-10-31T12:46:37;96045.03;;;28.68;30.03
32197;BME280;18697;42.770;23.400;2022-10-31T12:49:20;96049.91;;;28.12;30.39
32197;BME280;18697;42.770;23.400;2022-10-31T12:52:23;96039.38;;;28.53;31.09
32197;BME280;18697;42.770;23.400;2022-10-31T12:54:59;96039.31;;;28.83;30.37
32197;BME280;18697;42.770;23.400;2022-10-31T13:00:00;96053.53;;;27.82;30.45
32197;BME280;18697;42.770;23.400;2022-10-31T13:02:34;96040.13;;;27.31;31.81
32197;BME280;18697;42.770;23.400;2022-10-31T13:07:46;96048.16;;;27.48;31.92
32197;BME280;18697;42.770;23.400;2022-10-31T13:10:31;96039.38;;;27.31;32.19
32197;BME280;18697;42.770;23.400;2022-10-31T13:13:06;96040.91;;;27.32;32.06
32197;BME280;18697;42.770;23.400;2022-10-31T13:15:44;96044.09;;;27.13;32.35
32197;BME280;18697;42.770;23.400;2022-10-31T13:18:22;96040.72;;;26.86;33.20
32197;BME280;18697;42.770;23.400;2022-10-31T13:20:49;96045.44;;;26.76;33.47
32197;BME280;18697;42.770;23.400;2022-10-31T13:25:55;96045.69;;;26.49;33.31
32197;BME280;18697;42.770;23.400;2022-10-31T13:28:38;96053.94;;;26.61;33.20
32197;BME280;18697;42.770;23.400;2022-10-31T13:31:06;96050.59;;;26.41;33.43
32197;BME280;18697;42.770;23.400;2022-10-31T13:33:46;96050.72;;;26.64;33.49
32197;BME280;18697;42.770;23.400;2022-10-31T13:38:41;96054.53;;;26.67;33.43
32197;BME280;18697;42.770;23.400;2022-10-31T13:46:42;96057.47;;;26.25;33.62
32197;BME280;18697;42.770;23.400;2022-10-31T13:54:45;96059.22;;;26.57;33.08
32197;BME280;18697;42.770;23.400;2022-10-31T13:57:28;96053.13;;;26.52;33.41
32197;BME280;18697;42.770;23.400;2022-10-31T14:00:06;96055.50;;;26.69;32.96
32197;BME280;18697;42.770;23.400;2022-10-31T14:02:34;96055.53;;;26.84;33.46
32197;BME280;18697;42.770;23.400;2022-10-31T14:05:33;96061.03;;;26.82;32.59
32197;BME280;18697;42.770;23.400;2022-10-31T14:08:01;96060.75;;;26.58;33.26
32197;BME280;18697;42.770;23.400;2022-10-31T14:13:02;96066.56;;;26.88;33.22
32197;BME280;18697;42.770;23.400;2022-10-31T14:15:29;96065.94;;;27.10;32.93
32197;BME280;18697;42.770;23.400;2022-10-31T14:18:05;96064.44;;;27.25;32.76
32197;BME280;18697;42.770;23.400;2022-10-31T14:20:37;96069.63;;;27.34;31.88
32197;BME280;18697;42.770;23.400;2022-10-31T14:26:07;96065.53;;;27.06;32.45
32197;BME280;18697;42.770;23.400;2022-10-31T14:28:41;96069.88;;;27.00;32.63
32197;BME280;18697;42.770;23.400;2022-10-31T14:31:32;96071.47;;;26.80;32.79
32197;BME280;18697;42.770;23.400;2022-10-31T14:34:36;96072.22;;;26.73;33.62
32197;BME280;18697;42.770;23.400;2022-10-31T14:48:41;96071.66;;;26.38;34.92
32197;BME280;18697;42.770;23.400;2022-10-31T14:51:20;96070.81;;;26.30;34.83
32197;BME280;18697;42.770;23.400;2022-10-31T14:53:52;96070.50;;;26.13;34.90
32197;BME280;18697;42.770;23.400;2022-10-31T14:56:31;96064.50;;;25.96;35.61
32197;BME280;18697;42.770;23.400;2022-10-31T14:59:04;96073.03;;;25.96;34.42
32197;BME280;18697;42.770;23.400;2022-10-31T15:01:34;96071.25;;;25.85;33.82
32197;BME280;18697;42.770;23.400;2022-10-31T15:04:13;96068.75;;;25.81;34.40
32197;BME280;18697;42.770;23.400;2022-10-31T15:06:43;96076.59;;;25.68;33.37
32197;BME280;18697;42.770;23.400;2022-10-31T15:09:27;96072.84;;;25.39;33.71
32197;BME280;18697;42.770;23.400;2022-10-31T15:11:53;96066.88;;;25.29;35.24
32197;BME280;18697;42.770;23.400;2022-10-31T15:14:29;96075.84;;;25.33;35.13
32197;BME280;18697;42.770;23.400;2022-10-31T15:16:56;96074.72;;;25.36;36.23
32197;BME280;18697;42.770;23.400;2022-10-31T15:19:27;96077.78;;;25.38;35.56